Alicia, Arkansas
Current Conditions -  °F | °C
As of 6:16 PM on Sunday 23 Nov 2014 (Local Time) from KM19 Reporting Station
Overcast Overcast  
Wind Chill: 59°   Ceiling: 500
Heat Index: 59°   Visibility: 10mi
Dew Point: 59°   Wind: 5mph
Humidity: 100%   Direction: 180°S
Pressure: 29.38"   Gusts: NA
Location:  35.89°N, 91.08°W
Report Text: KM19 240016Z AUTO 18004KT 10SM BKN005 OVC024 15/15 A2938 RMK AO2
Loading
Personal Weather Stations






























Interactive Weather Map New forecast layout! Learn more

10-Day Weather Forecast

Advertisements
Track Severe Weather on mobile